createdAt,value
2022-09-16T00:00:55.946Z,94883.16
2022-09-16T00:03:23.850Z,94883.69
2022-09-16T00:05:54.205Z,94882.84
2022-09-16T00:08:23.175Z,94863.47
2022-09-16T00:10:51.116Z,94867.44
2022-09-16T00:13:19.766Z,94863.22
2022-09-16T00:15:50.965Z,94863.72
2022-09-16T00:18:20.303Z,94862.13
2022-09-16T00:20:49.716Z,94858.09
2022-09-16T00:23:19.762Z,94858.09
2022-09-16T00:25:52.500Z,94856.63
2022-09-16T00:28:21.690Z,94865.00
2022-09-16T00:30:49.794Z,94850.44
2022-09-16T00:33:18.082Z,94845.81
2022-09-16T00:35:45.827Z,94838.16
2022-09-16T00:38:13.592Z,94841.16
2022-09-16T00:40:47.043Z,94840.91
2022-09-16T00:43:15.624Z,94836.63
2022-09-16T00:45:45.568Z,94833.16
2022-09-16T00:48:17.988Z,94849.81
2022-09-16T00:50:49.346Z,94855.72
2022-09-16T00:53:21.108Z,94855.19
2022-09-16T00:55:51.881Z,94853.56
2022-09-16T00:58:24.084Z,94855.84
2022-09-16T01:00:52.187Z,94859.44
2022-09-16T01:03:20.914Z,94855.19
2022-09-16T01:05:50.110Z,94858.16
2022-09-16T01:08:18.118Z,94855.91
2022-09-16T01:10:45.785Z,94852.59
2022-09-16T01:13:17.074Z,94857.03
2022-09-16T01:15:52.307Z,94852.78
2022-09-16T01:18:27.640Z,94843.34
2022-09-16T01:21:23.563Z,94836.13
2022-09-16T01:24:15.345Z,94839.56
2022-09-16T01:27:15.688Z,94839.63
2022-09-16T01:30:18.881Z,94843.41
2022-09-16T01:33:04.971Z,94847.25
2022-09-16T01:35:50.539Z,94845.50
2022-09-16T01:38:34.424Z,94835.53
2022-09-16T01:41:10.305Z,94840.09
2022-09-16T01:43:50.861Z,94828.13
2022-09-16T01:46:25.787Z,94835.53
2022-09-16T01:49:02.073Z,94837.19
2022-09-16T01:51:34.542Z,94836.69
2022-09-16T01:54:09.357Z,94844.41
2022-09-16T01:56:43.913Z,94844.13
2022-09-16T01:59:16.289Z,94847.72
2022-09-16T02:01:50.707Z,94839.72
2022-09-16T02:04:24.825Z,94838.75
2022-09-16T02:06:55.135Z,94846.91
2022-09-16T02:09:28.026Z,94844.41
2022-09-16T02:12:05.414Z,94844.28
2022-09-16T02:14:37.147Z,94846.75
2022-09-16T02:17:09.289Z,94844.63
2022-09-16T02:19:42.973Z,94852.31
2022-09-16T02:22:17.036Z,94857.09
2022-09-16T02:24:47.740Z,94853.91
2022-09-16T02:27:18.926Z,94855.53
2022-09-16T02:29:51.575Z,94849.97
2022-09-16T02:32:21.586Z,94852.25
2022-09-16T02:34:54.439Z,94845.88
2022-09-16T02:37:28.180Z,94845.94
2022-09-16T02:40:02.198Z,94848.06
2022-09-16T02:42:30.554Z,94842.53
2022-09-16T02:44:59.312Z,94846.25
2022-09-16T02:47:33.022Z,94849.38
2022-09-16T02:50:09.027Z,94846.66
2022-09-16T02:52:44.668Z,94846.19
2022-09-16T02:55:21.679Z,94837.66
2022-09-16T02:57:50.576Z,94838.97
2022-09-16T03:00:18.342Z,94834.38
2022-09-16T03:02:46.154Z,94838.31
2022-09-16T03:08:06.597Z,94832.56
2022-09-16T03:10:42.631Z,94834.53
2022-09-16T03:13:14.390Z,94830.75
2022-09-16T03:15:51.351Z,94825.53
2022-09-16T03:18:32.095Z,94833.38
2022-09-16T03:21:05.355Z,94824.56
2022-09-16T03:23:44.035Z,94822.94
2022-09-16T03:32:40.113Z,94817.25
2022-09-16T03:35:11.505Z,94817.56
2022-09-16T03:37:40.189Z,94805.91
2022-09-16T03:40:11.021Z,94810.50
2022-09-16T03:42:39.130Z,94814.22
2022-09-16T03:45:07.875Z,94815.72
2022-09-16T03:47:37.008Z,94808.53
2022-09-16T03:50:05.170Z,94810.00
2022-09-16T03:52:32.756Z,94803.94
2022-09-16T03:55:00.365Z,94813.47
2022-09-16T03:57:30.278Z,94800.53
2022-09-16T03:59:57.893Z,94801.50
2022-09-16T04:02:25.715Z,94797.69
2022-09-16T04:04:54.745Z,94804.91
2022-09-16T04:07:22.322Z,94801.19
2022-09-16T04:09:49.992Z,94797.78
2022-09-16T04:12:17.652Z,94804.31
2022-09-16T04:14:45.225Z,94810.88
2022-09-16T04:17:12.950Z,94815.78
2022-09-16T04:19:40.561Z,94811.06
2022-09-16T04:22:09.595Z,94811.22
2022-09-16T04:24:37.295Z,94810.88
2022-09-16T04:27:05.263Z,94809.91
2022-09-16T04:29:33.242Z,94814.50
2022-09-16T04:32:00.853Z,94814.69
2022-09-16T04:34:28.410Z,94811.59
2022-09-16T04:36:55.959Z,94816.16
2022-09-16T04:39:25.355Z,94822.84
2022-09-16T04:41:52.963Z,94815.84
2022-09-16T04:44:20.551Z,94812.19
2022-09-16T04:46:48.267Z,94820.72
2022-09-16T04:49:15.834Z,94824.16
2022-09-16T04:51:43.635Z,94827.59
2022-09-16T04:54:11.757Z,94827.94
2022-09-16T04:56:40.658Z,94827.78
2022-09-16T04:59:08.320Z,94819.25
2022-09-16T05:01:38.488Z,94823.84
2022-09-16T05:04:07.977Z,94824.03
2022-09-16T05:06:37.263Z,94826.28
2022-09-16T05:09:05.033Z,94829.56
2022-09-16T05:11:34.437Z,94826.31
2022-09-16T05:14:05.370Z,94836.59
2022-09-16T05:16:33.832Z,94834.47
2022-09-16T05:19:04.652Z,94831.19
2022-09-16T05:21:34.717Z,94835.59
2022-09-16T05:24:03.716Z,94833.31
2022-09-16T05:26:35.196Z,94840.97
2022-09-16T05:29:06.734Z,94837.88
2022-09-16T05:31:36.233Z,94837.69
2022-09-16T05:34:05.974Z,94832.63
2022-09-16T05:36:35.972Z,94834.91
2022-09-16T05:41:55.180Z,94824.09
2022-09-16T05:44:24.453Z,94822.63
2022-09-16T05:46:52.102Z,94822.44
2022-09-16T05:49:21.158Z,94818.34
2022-09-16T05:51:49.791Z,94820.31
2022-09-16T05:54:18.526Z,94808.69
2022-09-16T05:56:46.882Z,94821.34
2022-09-16T05:59:16.020Z,94831.78
2022-09-16T06:01:45.714Z,94827.00
2022-09-16T06:04:14.846Z,94825.06
2022-09-16T06:06:44.069Z,94816.84
2022-09-16T06:09:15.023Z,94812.41
2022-09-16T06:11:44.668Z,94814.38
2022-09-16T06:14:13.996Z,94816.56
2022-09-16T06:16:42.367Z,94823.94
2022-09-16T06:19:14.055Z,94818.03
2022-09-16T06:21:43.676Z,94809.31
2022-09-16T06:24:12.289Z,94806.22
2022-09-16T06:26:42.166Z,94816.84
2022-09-16T06:29:11.117Z,94813.25
2022-09-16T06:31:39.335Z,94819.81
2022-09-16T06:34:08.077Z,94819.00
2022-09-16T06:36:42.731Z,94817.69
2022-09-16T06:39:13.109Z,94819.47
2022-09-16T06:41:40.735Z,94823.91
2022-09-16T06:44:08.597Z,94822.63
2022-09-16T06:46:36.366Z,94823.28
2022-09-16T06:49:06.108Z,94818.22
2022-09-16T06:51:34.901Z,94822.22
2022-09-16T06:54:05.617Z,94826.16
2022-09-16T06:56:34.040Z,94821.75
2022-09-16T06:59:01.667Z,94816.97
2022-09-16T07:01:31.014Z,94811.91
2022-09-16T07:03:59.912Z,94814.00
2022-09-16T07:06:57.482Z,94807.34
2022-09-16T07:09:19.343Z,94808.94
2022-09-16T07:11:46.931Z,94817.19
2022-09-16T07:14:14.999Z,94807.06
2022-09-16T07:16:42.691Z,94810.97
2022-09-16T07:19:10.841Z,94812.63
2022-09-16T07:21:38.438Z,94816.69
2022-09-16T07:24:06.391Z,94817.16
2022-09-16T07:26:37.691Z,94816.63
2022-09-16T07:29:07.811Z,94816.78
2022-09-16T07:31:36.979Z,94815.03
2022-09-16T07:34:06.369Z,94814.34
2022-09-16T07:36:36.884Z,94818.31
2022-09-16T07:39:05.146Z,94821.06
2022-09-16T07:41:36.286Z,94821.22
2022-09-16T07:44:05.384Z,94817.81
2022-09-16T07:46:35.699Z,94815.78
2022-09-16T07:49:05.368Z,94811.50
2022-09-16T07:51:33.421Z,94811.88
2022-09-16T07:54:03.888Z,94809.75
2022-09-16T07:56:34.611Z,94807.84
2022-09-16T07:59:06.599Z,94810.63
2022-09-16T08:01:34.784Z,94805.47
2022-09-16T08:04:04.451Z,94812.47
2022-09-16T08:06:33.896Z,94816.91
2022-09-16T08:09:10.532Z,94812.97
2022-09-16T08:11:50.116Z,94807.03
2022-09-16T08:14:19.057Z,94801.91
2022-09-16T08:16:46.767Z,94802.25
2022-09-16T08:19:14.617Z,94805.88
2022-09-16T08:21:42.231Z,94815.72
2022-09-16T08:24:11.033Z,94811.31
2022-09-16T08:26:38.860Z,94811.13
2022-09-16T08:29:09.662Z,94822.19
2022-09-16T08:31:39.533Z,94823.34
2022-09-16T08:34:07.411Z,94819.28
2022-09-16T08:36:35.130Z,94823.22
2022-09-16T08:39:03.174Z,94820.59
2022-09-16T08:41:43.024Z,94819.09
2022-09-16T08:44:20.966Z,94819.75
2022-09-16T08:46:53.416Z,94816.69
2022-09-16T08:49:30.536Z,94818.47
2022-09-16T08:52:00.543Z,94817.31
2022-09-16T08:54:32.605Z,94812.19
2022-09-16T08:57:03.728Z,94803.75
2022-09-16T08:59:36.850Z,94810.97
2022-09-16T09:02:29.866Z,94822.56
2022-09-16T09:04:58.228Z,94813.22
2022-09-16T09:07:35.942Z,94822.31
2022-09-16T09:10:12.010Z,94819.22
2022-09-16T09:12:44.031Z,94807.84
2022-09-16T09:15:35.381Z,94806.75
2022-09-16T09:18:17.259Z,94811.25
2022-09-16T09:20:55.284Z,94809.44
2022-09-16T09:23:39.306Z,94809.66
2022-09-16T09:26:14.743Z,94806.72
2022-09-16T09:29:09.179Z,94806.44
2022-09-16T09:34:34.954Z,94791.38
2022-09-16T09:37:20.399Z,94788.56
2022-09-16T09:40:01.695Z,94790.03
2022-09-16T09:42:32.784Z,94785.03
2022-09-16T09:45:04.772Z,94786.38
2022-09-16T09:47:38.074Z,94786.50
2022-09-16T09:50:18.550Z,94789.44
2022-09-16T09:52:53.607Z,94788.75
2022-09-16T09:55:24.739Z,94792.19
2022-09-16T09:58:07.486Z,94792.66
2022-09-16T10:00:35.206Z,94791.59
2022-09-16T10:03:07.826Z,94783.63
2022-09-16T10:05:36.808Z,94794.88
2022-09-16T10:08:16.429Z,94790.78
2022-09-16T10:10:50.279Z,94784.66
2022-09-16T10:13:19.477Z,94782.31
2022-09-16T10:15:51.954Z,94775.56
2022-09-16T10:18:27.157Z,94780.00
2022-09-16T10:21:08.127Z,94778.25
2022-09-16T10:23:39.262Z,94775.00
2022-09-16T10:26:20.337Z,94776.34
2022-09-16T10:28:56.332Z,94776.25
2022-09-16T10:31:25.254Z,94761.19
2022-09-16T10:33:53.941Z,94759.84
2022-09-16T10:36:26.263Z,94760.31
2022-09-16T10:39:00.909Z,94765.22
2022-09-16T10:41:36.100Z,94764.16
2022-09-16T10:44:08.325Z,94755.97
2022-09-16T10:46:36.174Z,94746.50
2022-09-16T10:49:13.228Z,94755.56
2022-09-16T10:51:42.284Z,94752.50
2022-09-16T10:54:25.609Z,94756.63
2022-09-16T10:56:53.399Z,94754.00
2022-09-16T10:59:21.396Z,94767.59
2022-09-16T11:01:59.379Z,94774.00
2022-09-16T11:04:46.470Z,94773.41
2022-09-16T11:07:28.359Z,94761.19
2022-09-16T11:10:05.991Z,94766.28
2022-09-16T11:12:53.331Z,94769.06
2022-09-16T11:15:33.170Z,94778.34
2022-09-16T11:18:19.408Z,94774.47
2022-09-16T11:21:00.081Z,94782.16
2022-09-16T11:23:50.786Z,94776.44
2022-09-16T11:26:25.784Z,94763.03
2022-09-16T11:29:27.239Z,94785.78
2022-09-16T11:32:04.002Z,94770.56
2022-09-16T11:34:44.607Z,94777.41
2022-09-16T11:37:21.357Z,94769.41
2022-09-16T11:40:02.896Z,94775.66
2022-09-16T11:42:36.179Z,94781.69
2022-09-16T11:45:17.837Z,94792.13
2022-09-16T11:47:59.139Z,94799.66
2022-09-16T11:50:45.594Z,94793.91
2022-09-16T11:53:46.621Z,94807.03
2022-09-16T11:56:20.529Z,94806.03
2022-09-16T11:58:52.300Z,94820.41
2022-09-16T12:01:30.202Z,94825.97
2022-09-16T12:04:07.866Z,94825.09
2022-09-16T12:06:41.991Z,94830.47
2022-09-16T12:09:15.758Z,94827.38
2022-09-16T12:11:49.319Z,94819.41
2022-09-16T12:14:22.527Z,94815.84
2022-09-16T12:16:55.020Z,94819.78
2022-09-16T12:19:28.424Z,94815.00
2022-09-16T12:22:03.760Z,94821.25
2022-09-16T12:24:39.517Z,94840.38
2022-09-16T12:27:31.644Z,94845.41
2022-09-16T12:30:03.152Z,94835.78
2022-09-16T12:32:38.687Z,94845.72
2022-09-16T12:35:14.454Z,94832.94
2022-09-16T12:37:48.358Z,94840.13
2022-09-16T12:40:19.668Z,94839.19
2022-09-16T12:43:23.624Z,94839.50
2022-09-16T12:46:16.057Z,94861.28
2022-09-16T12:49:03.262Z,94867.81
2022-09-16T12:51:50.228Z,94864.06
2022-09-16T12:55:04.390Z,94868.97
2022-09-16T12:57:45.684Z,94852.91
2022-09-16T13:00:18.985Z,94851.31
2022-09-16T13:02:51.911Z,94850.47
2022-09-16T13:05:26.248Z,94865.66
2022-09-16T13:07:58.888Z,94870.38
2022-09-16T13:10:53.923Z,94855.00
2022-09-16T13:13:31.780Z,94863.00
2022-09-16T13:16:01.631Z,94853.41
2022-09-16T13:18:43.053Z,94864.97
2022-09-16T13:21:23.253Z,94848.28
2022-09-16T13:24:01.804Z,94850.91
2022-09-16T13:26:40.880Z,94834.72
2022-09-16T13:29:39.814Z,94839.25
2022-09-16T13:32:25.943Z,94833.00
2022-09-16T13:35:04.650Z,94831.38
2022-09-16T13:37:32.350Z,94828.59
2022-09-16T13:40:10.647Z,94829.41
2022-09-16T13:42:38.270Z,94838.19
2022-09-16T13:45:33.762Z,94844.44
2022-09-16T13:48:07.437Z,94841.97
2022-09-16T13:50:37.265Z,94852.13
2022-09-16T13:53:11.142Z,94863.56
2022-09-16T13:55:41.424Z,94858.31
2022-09-16T13:58:21.771Z,94866.16
2022-09-16T14:01:05.724Z,94872.16
2022-09-16T14:03:56.300Z,94871.97
2022-09-16T14:06:45.444Z,94874.75
2022-09-16T14:09:27.236Z,94881.13
2022-09-16T14:12:03.866Z,94891.06
2022-09-16T14:14:49.846Z,94891.88
2022-09-16T14:17:21.721Z,94899.72
2022-09-16T14:19:51.347Z,94903.50
2022-09-16T14:22:23.047Z,94903.97
2022-09-16T14:25:00.554Z,94908.88
2022-09-16T14:27:39.362Z,94907.72
2022-09-16T14:30:14.825Z,94907.19
2022-09-16T14:32:42.810Z,94898.59
2022-09-16T14:35:13.455Z,94905.59
2022-09-16T14:37:46.419Z,94888.06
2022-09-16T14:40:16.646Z,94894.59
2022-09-16T14:42:49.825Z,94886.94
2022-09-16T14:45:18.121Z,94893.66
2022-09-16T14:47:51.639Z,94897.44
2022-09-16T14:50:23.294Z,94895.81
2022-09-16T14:52:57.631Z,94900.81
2022-09-16T14:55:30.062Z,94909.50
2022-09-16T14:57:58.222Z,94903.28
2022-09-16T15:00:28.478Z,94903.16
2022-09-16T15:03:01.024Z,94900.84
2022-09-16T15:05:33.883Z,94911.00
2022-09-16T15:08:14.937Z,94897.66
2022-09-16T15:10:55.255Z,94896.16
2022-09-16T15:13:27.783Z,94896.47
2022-09-16T15:15:58.885Z,94895.69
2022-09-16T15:18:29.554Z,94898.16
2022-09-16T15:21:04.578Z,94893.94
2022-09-16T15:23:34.588Z,94898.97
2022-09-16T15:26:12.602Z,94896.44
2022-09-16T15:28:52.279Z,94905.13
2022-09-16T15:31:28.284Z,94915.19
2022-09-16T15:33:58.085Z,94906.81
2022-09-16T15:36:40.117Z,94903.53
2022-09-16T15:39:24.385Z,94907.34
2022-09-16T15:42:06.049Z,94896.50
2022-09-16T15:44:37.321Z,94899.69
2022-09-16T15:47:05.858Z,94885.25
2022-09-16T15:49:39.293Z,94892.72
2022-09-16T15:52:11.552Z,94893.69
2022-09-16T15:54:49.735Z,94893.50
2022-09-16T15:57:30.544Z,94887.84
2022-09-16T16:00:10.886Z,94876.94
2022-09-16T16:02:44.651Z,94868.31
2022-09-16T16:05:15.260Z,94867.53
2022-09-16T16:07:45.751Z,94885.06
2022-09-16T16:10:20.346Z,94887.31
2022-09-16T16:12:49.352Z,94879.13
2022-09-16T16:15:18.580Z,94884.94
2022-09-16T16:17:47.493Z,94891.81
2022-09-16T16:20:16.966Z,94891.81
2022-09-16T16:22:45.350Z,94889.34
2022-09-16T16:25:14.079Z,94889.16
2022-09-16T16:27:43.009Z,94887.59
2022-09-16T16:30:11.972Z,94889.41
2022-09-16T16:32:40.005Z,94881.19
2022-09-16T16:35:08.517Z,94880.59
2022-09-16T16:37:51.970Z,94879.59
2022-09-16T16:40:19.846Z,94891.38
2022-09-16T16:42:48.896Z,94882.78
2022-09-16T16:45:16.823Z,94882.78
2022-09-16T16:47:46.268Z,94882.66
2022-09-16T16:50:14.698Z,94886.25
2022-09-16T16:52:42.416Z,94878.88
2022-09-16T16:55:10.791Z,94875.09
2022-09-16T16:57:38.496Z,94876.59
2022-09-16T17:00:08.820Z,94881.41
2022-09-16T17:02:36.634Z,94891.69
2022-09-16T17:05:04.398Z,94892.16
2022-09-16T17:07:31.997Z,94892.72
2022-09-16T17:09:59.649Z,94900.03
2022-09-16T17:12:27.917Z,94890.75
2022-09-16T17:14:55.563Z,94898.25
2022-09-16T17:17:29.114Z,94892.41
2022-09-16T17:19:59.122Z,94890.19
2022-09-16T17:22:26.753Z,94896.31
2022-09-16T17:24:54.471Z,94891.34
2022-09-16T17:27:24.820Z,94879.47
2022-09-16T17:29:52.495Z,94885.66
2022-09-16T17:32:20.535Z,94882.06
2022-09-16T17:34:49.524Z,94883.47
2022-09-16T17:37:19.928Z,94879.53
2022-09-16T17:39:48.576Z,94881.59
2022-09-16T17:42:16.236Z,94873.16
2022-09-16T17:44:43.976Z,94873.16
2022-09-16T17:47:11.919Z,94873.09
2022-09-16T17:49:39.503Z,94870.81
2022-09-16T17:52:08.850Z,94870.78
2022-09-16T17:54:36.600Z,94879.66
2022-09-16T17:57:04.270Z,94878.22
2022-09-16T17:59:32.065Z,94866.66
2022-09-16T18:02:00.094Z,94876.44
2022-09-16T18:04:27.668Z,94874.03
2022-09-16T18:06:55.321Z,94868.19
2022-09-16T18:09:24.399Z,94874.19
2022-09-16T18:11:52.133Z,94872.91
2022-09-16T18:14:23.248Z,94869.53
2022-09-16T18:16:51.458Z,94864.19
2022-09-16T18:19:19.165Z,94873.00
2022-09-16T18:21:47.037Z,94868.94
2022-09-16T18:24:15.856Z,94867.06
2022-09-16T18:26:45.225Z,94872.66
2022-09-16T18:29:14.233Z,94881.50
2022-09-16T18:31:43.826Z,94882.06
2022-09-16T18:34:12.372Z,94886.00
2022-09-16T18:36:40.360Z,94885.50
2022-09-16T18:39:11.647Z,94895.94
2022-09-16T18:41:41.352Z,94902.94
2022-09-16T18:44:13.873Z,94907.41
2022-09-16T18:46:41.735Z,94910.84
2022-09-16T18:49:12.513Z,94901.00
2022-09-16T18:51:41.786Z,94895.13
2022-09-16T18:54:13.227Z,94894.66
2022-09-16T18:56:42.360Z,94907.59
2022-09-16T18:59:21.511Z,94903.53
2022-09-16T19:01:52.011Z,94905.38
2022-09-16T19:04:21.748Z,94902.88
2022-09-16T19:06:51.877Z,94915.50
2022-09-16T19:09:22.573Z,94911.91
2022-09-16T19:11:52.352Z,94904.69
2022-09-16T19:14:24.294Z,94911.41
2022-09-16T19:16:52.120Z,94891.88
2022-09-16T19:19:20.505Z,94896.72
2022-09-16T19:21:48.577Z,94910.59
2022-09-16T19:24:18.480Z,94891.50
2022-09-16T19:26:48.030Z,94899.09
2022-09-16T19:29:16.952Z,94906.81
2022-09-16T19:31:47.711Z,94909.91
2022-09-16T19:34:16.914Z,94915.41
2022-09-16T19:36:45.112Z,94912.56
2022-09-16T19:39:14.508Z,94905.69
2022-09-16T19:41:42.930Z,94905.19
2022-09-16T19:44:13.900Z,94905.56
2022-09-16T19:46:42.714Z,94909.44
2022-09-16T19:49:17.682Z,94912.34
2022-09-16T19:51:45.433Z,94913.72
2022-09-16T19:54:13.559Z,94901.63
2022-09-16T19:56:41.182Z,94903.75
2022-09-16T19:59:09.400Z,94898.19
2022-09-16T20:01:38.349Z,94893.81
2022-09-16T20:04:08.505Z,94900.09
2022-09-16T20:06:39.310Z,94921.41
2022-09-16T20:09:09.084Z,94905.69
2022-09-16T20:11:41.652Z,94894.94
2022-09-16T20:14:13.547Z,94889.09
2022-09-16T20:16:41.381Z,94883.84
2022-09-16T20:19:12.092Z,94894.47
2022-09-16T20:21:41.336Z,94900.81
2022-09-16T20:24:14.672Z,94908.88
2022-09-16T20:26:42.334Z,94917.53
2022-09-16T20:29:09.944Z,94905.97
2022-09-16T20:31:38.295Z,94901.88
2022-09-16T20:34:06.895Z,94907.59
2022-09-16T20:36:38.865Z,94907.59
2022-09-16T20:39:10.423Z,94909.00
2022-09-16T20:41:39.673Z,94909.25
2022-09-16T20:44:07.696Z,94905.97
2022-09-16T20:46:36.965Z,94906.47
2022-09-16T20:49:09.350Z,94905.03
2022-09-16T20:51:37.668Z,94913.47
2022-09-16T20:54:09.250Z,94910.41
2022-09-16T20:56:40.588Z,94917.28
2022-09-16T20:59:09.779Z,94911.59
2022-09-16T21:01:38.925Z,94910.25
2022-09-16T21:04:08.530Z,94890.06
2022-09-16T21:06:37.292Z,94899.03
2022-09-16T21:09:10.183Z,94907.88
2022-09-16T21:11:40.752Z,94900.38
2022-09-16T21:14:08.558Z,94907.06
2022-09-16T21:16:38.077Z,94914.00
2022-09-16T21:19:09.242Z,94920.13
2022-09-16T21:21:38.243Z,94923.91
2022-09-16T21:24:08.614Z,94925.09
2022-09-16T21:26:38.463Z,94921.38
2022-09-16T21:29:09.777Z,94925.56
2022-09-16T21:31:39.164Z,94912.34
2022-09-16T21:34:07.986Z,94929.00
2022-09-16T21:36:37.627Z,94921.38
2022-09-16T21:39:05.283Z,94928.59
2022-09-16T21:41:34.610Z,94931.50
2022-09-16T21:44:03.830Z,94945.28
2022-09-16T21:46:33.661Z,94942.47
2022-09-16T21:49:03.158Z,94937.25
2022-09-16T21:51:35.113Z,94928.06
2022-09-16T21:54:03.531Z,94925.69
2022-09-16T21:56:32.040Z,94938.50
2022-09-16T21:59:01.182Z,94942.28
2022-09-16T22:01:33.566Z,94939.75
2022-09-16T22:04:03.393Z,94929.19
2022-09-16T22:06:31.515Z,94930.59
2022-09-16T22:09:01.610Z,94937.69
2022-09-16T22:11:31.313Z,94932.47
2022-09-16T22:14:01.481Z,94937.00
2022-09-16T22:16:31.128Z,94932.72
2022-09-16T22:19:00.606Z,94940.94
2022-09-16T22:21:31.204Z,94934.97
2022-09-16T22:24:02.918Z,94931.84
2022-09-16T22:26:31.749Z,94932.81
2022-09-16T22:29:01.079Z,94940.25
2022-09-16T22:31:30.452Z,94937.72
2022-09-16T22:34:00.409Z,94930.03
2022-09-16T22:36:31.003Z,94935.63
2022-09-16T22:39:01.755Z,94934.28
2022-09-16T22:41:30.453Z,94931.38
2022-09-16T22:43:58.190Z,94940.38
2022-09-16T22:46:29.346Z,94932.41
2022-09-16T22:48:58.471Z,94929.59
2022-09-16T22:51:27.019Z,94939.50
2022-09-16T22:53:55.607Z,94940.34
2022-09-16T22:56:25.876Z,94929.91
2022-09-16T22:58:54.848Z,94930.59
2022-09-16T23:01:24.790Z,94928.50
2022-09-16T23:03:56.354Z,94922.34
2022-09-16T23:06:25.311Z,94924.03
2022-09-16T23:08:53.679Z,94925.31
2022-09-16T23:11:25.855Z,94923.41
2022-09-16T23:13:54.119Z,94923.81
2022-09-16T23:16:23.982Z,94924.88
2022-09-16T23:18:51.743Z,94918.56
2022-09-16T23:21:23.219Z,94920.16
2022-09-16T23:23:52.540Z,94922.97
2022-09-16T23:26:22.181Z,94918.84
2022-09-16T23:28:53.087Z,94911.00
2022-09-16T23:31:22.513Z,94906.31
2022-09-16T23:33:50.369Z,94907.97
2022-09-16T23:36:20.277Z,94912.88
2022-09-16T23:38:48.239Z,94918.78
2022-09-16T23:41:18.386Z,94912.56
2022-09-16T23:43:46.658Z,94918.47
2022-09-16T23:46:16.207Z,94924.28
2022-09-16T23:48:45.205Z,94928.56
2022-09-16T23:51:13.962Z,94926.41
2022-09-16T23:53:43.187Z,94924.91
2022-09-16T23:56:13.437Z,94927.09
2022-09-16T23:58:42.207Z,94929.03
